Terminal Aerodrome Forecast
Issued by NWS

Home | Current Version | Previous Version | Graphics & Text | Print | Product List | Glossary On
Versions: 1 2 3 4 5 6 7 8 9 10 11 12 13 14 15 16 17 18 19 20 21 22 23 24 25 26 27 28
243
FTUS42 KMHX 282326
TAFOAJ
TAF
KOAJ 282326Z 2900/2924 22010KT P6SM VCTS SCT040CB BKN150
     FM290300 21007KT P6SM VCSH BKN050
     FM290900 VRB04KT 4SM BR BKN007
     FM291300 VRB04KT P6SM BKN015
     FM291600 36006KT P6SM SCT040
      AMD LTD TO CLD VIS AND WIND=

USA.gov is the U.S. government's official web portal to all federal, state and local government web resources and services.